createdAt,value
2022-08-29T00:04:48.041Z,18.64
2022-08-29T00:09:41.397Z,18.51
2022-08-29T00:14:36.565Z,18.56
2022-08-29T00:19:29.901Z,18.64
2022-08-29T00:24:26.096Z,18.45
2022-08-29T00:29:19.425Z,18.27
2022-08-29T00:34:14.148Z,18.43
2022-08-29T00:39:09.203Z,18.22
2022-08-29T00:44:03.510Z,18.23
2022-08-29T00:49:04.099Z,18.27
2022-08-29T00:54:04.437Z,18.20
2022-08-29T00:59:05.036Z,18.16
2022-08-29T01:03:58.667Z,18.21
2022-08-29T01:08:57.360Z,18.09
2022-08-29T01:13:56.023Z,18.14
2022-08-29T01:18:54.335Z,18.08
2022-08-29T01:24:00.437Z,18.02
2022-08-29T01:28:56.754Z,17.99
2022-08-29T01:33:53.272Z,17.99
2022-08-29T01:38:46.591Z,17.86
2022-08-29T01:43:49.791Z,17.89
2022-08-29T01:48:46.824Z,17.79
2022-08-29T01:53:40.761Z,17.82
2022-08-29T01:58:34.075Z,17.73
2022-08-29T02:03:27.469Z,17.69
2022-08-29T02:08:22.147Z,17.71
2022-08-29T02:13:15.467Z,17.77
2022-08-29T02:18:08.795Z,17.67
2022-08-29T02:23:02.079Z,17.68
2022-08-29T02:27:58.198Z,17.60
2022-08-29T02:32:51.527Z,17.57
2022-08-29T02:37:44.942Z,17.62
2022-08-29T02:42:38.318Z,17.58
2022-08-29T02:47:36.574Z,17.55
2022-08-29T02:52:30.724Z,17.57
2022-08-29T02:57:26.415Z,17.42
2022-08-29T03:02:20.067Z,17.48
2022-08-29T03:07:14.828Z,17.46
2022-08-29T03:12:08.729Z,17.30
2022-08-29T03:17:02.132Z,17.28
2022-08-29T03:21:55.480Z,17.20
2022-08-29T03:26:54.532Z,17.24
2022-08-29T03:31:50.502Z,17.15
2022-08-29T03:36:43.848Z,17.13
2022-08-29T03:41:37.142Z,17.14
2022-08-29T03:46:31.871Z,17.18
2022-08-29T03:51:29.572Z,17.12
2022-08-29T03:56:23.094Z,17.10
2022-08-29T04:01:17.684Z,17.07
2022-08-29T04:06:13.039Z,17.06
2022-08-29T04:11:11.212Z,16.94
2022-08-29T04:16:11.292Z,16.90
2022-08-29T04:21:06.965Z,16.83
2022-08-29T04:26:19.130Z,16.81
2022-08-29T04:31:20.169Z,16.95
2022-08-29T04:36:15.129Z,16.99
2022-08-29T04:41:14.842Z,17.02
2022-08-29T04:46:08.366Z,17.00
2022-08-29T04:51:10.819Z,16.75
2022-08-29T04:56:10.163Z,16.79
2022-08-29T05:01:03.859Z,16.83
2022-08-29T05:05:57.930Z,16.82
2022-08-29T05:10:51.481Z,16.90
2022-08-29T05:15:46.407Z,16.93
2022-08-29T05:20:42.086Z,16.75
2022-08-29T05:25:35.569Z,16.89
2022-08-29T05:30:34.611Z,17.03
2022-08-29T05:35:30.180Z,17.01
2022-08-29T05:40:23.588Z,17.07
2022-08-29T05:45:17.094Z,17.14
2022-08-29T05:50:11.835Z,17.23
2022-08-29T05:55:07.332Z,17.37
2022-08-29T06:00:01.263Z,17.47
2022-08-29T06:04:54.680Z,17.58
2022-08-29T06:09:52.957Z,17.63
2022-08-29T06:14:50.145Z,17.74
2022-08-29T06:19:44.156Z,17.85
2022-08-29T06:24:39.127Z,18.01
2022-08-29T06:29:32.715Z,18.23
2022-08-29T06:34:38.061Z,18.16
2022-08-29T06:39:31.824Z,18.26
2022-08-29T06:44:26.585Z,18.37
2022-08-29T06:49:24.643Z,18.41
2022-08-29T06:54:21.966Z,18.55
2022-08-29T06:59:16.267Z,18.53
2022-08-29T07:04:14.409Z,18.55
2022-08-29T07:09:10.470Z,18.63
2022-08-29T07:14:05.837Z,18.72
2022-08-29T07:18:59.729Z,18.86
2022-08-29T07:23:55.267Z,19.00
2022-08-29T07:28:49.803Z,19.26
2022-08-29T07:33:44.920Z,19.53
2022-08-29T07:38:39.453Z,19.73
2022-08-29T07:43:36.299Z,20.11
2022-08-29T07:48:30.178Z,20.37
2022-08-29T07:53:28.500Z,20.60
2022-08-29T07:58:21.855Z,20.74
2022-08-29T08:03:16.204Z,20.84
2022-08-29T08:08:14.825Z,21.17
2022-08-29T08:13:11.049Z,21.28
2022-08-29T08:18:04.807Z,21.40
2022-08-29T08:22:58.648Z,21.61
2022-08-29T08:27:52.118Z,21.60
2022-08-29T08:32:49.562Z,21.71
2022-08-29T08:37:46.237Z,21.90
2022-08-29T08:42:43.969Z,22.16
2022-08-29T08:47:44.525Z,22.39
2022-08-29T09:29:34.591Z,23.26
2022-08-29T09:34:57.416Z,23.43
2022-08-29T09:40:01.517Z,23.72
2022-08-29T09:50:13.751Z,23.85
2022-08-29T10:16:00.001Z,24.25
2022-08-29T10:41:55.237Z,24.54
2022-08-29T11:02:32.670Z,24.64
2022-08-29T11:07:41.105Z,24.64
2022-08-29T11:12:45.376Z,24.70
2022-08-29T11:48:52.855Z,25.21
2022-08-29T11:58:52.631Z,25.40
2022-08-29T12:03:47.496Z,25.41
2022-08-29T12:19:06.128Z,25.54
2022-08-29T12:29:22.038Z,25.46
2022-08-29T12:34:35.470Z,25.60
2022-08-29T12:55:05.869Z,25.51
2022-08-29T13:54:37.116Z,25.41
2022-08-29T13:59:36.194Z,25.37
2022-08-29T14:14:55.039Z,25.51
2022-08-29T14:19:48.915Z,25.59
2022-08-29T15:21:38.642Z,25.56
2022-08-29T15:26:32.554Z,25.43
2022-08-29T15:31:26.016Z,25.49
2022-08-29T15:36:19.375Z,25.41
2022-08-29T15:41:14.107Z,25.39
2022-08-29T15:46:07.866Z,25.40
2022-08-29T15:51:01.502Z,25.39
2022-08-29T15:55:54.967Z,25.39
2022-08-29T16:00:49.771Z,25.36
2022-08-29T16:05:43.786Z,25.32
2022-08-29T16:10:37.230Z,25.36
2022-08-29T16:15:31.571Z,25.26
2022-08-29T16:20:26.852Z,25.29
2022-08-29T16:25:24.838Z,25.31
2022-08-29T16:30:20.118Z,25.14
2022-08-29T16:35:16.773Z,25.06
2022-08-29T16:40:16.124Z,25.03
2022-08-29T16:45:11.947Z,24.91
2022-08-29T16:50:08.875Z,24.87
2022-08-29T16:55:02.272Z,24.80
2022-08-29T16:59:57.131Z,24.79
2022-08-29T17:04:50.524Z,24.76
2022-08-29T17:09:42.809Z,24.66
2022-08-29T17:14:35.052Z,24.64
2022-08-29T17:19:33.459Z,24.61
2022-08-29T17:24:27.188Z,24.42
2022-08-29T17:29:20.690Z,24.21
2022-08-29T17:34:16.188Z,24.39
2022-08-29T17:39:11.454Z,24.27
2022-08-29T17:44:07.004Z,24.15
2022-08-29T17:49:04.232Z,23.96
2022-08-29T17:54:00.472Z,23.87
2022-08-29T17:58:55.289Z,23.71
2022-08-29T18:03:48.712Z,23.57
2022-08-29T18:08:42.353Z,23.50
2022-08-29T18:13:41.822Z,23.31
2022-08-29T18:18:36.662Z,23.07
2022-08-29T18:23:30.120Z,22.91
2022-08-29T18:28:23.511Z,22.79
2022-08-29T18:33:17.042Z,22.73
2022-08-29T18:38:11.920Z,22.70
2022-08-29T18:43:05.569Z,22.68
2022-08-29T18:47:58.942Z,22.74
2022-08-29T18:53:05.475Z,22.48
2022-08-29T18:58:01.240Z,22.34
2022-08-29T19:02:56.380Z,22.30
2022-08-29T19:07:49.799Z,22.36
2022-08-29T19:12:44.168Z,22.30
2022-08-29T19:17:42.896Z,22.28
2022-08-29T19:22:38.283Z,22.15
2022-08-29T19:27:42.873Z,22.14
2022-08-29T19:32:37.039Z,21.82
2022-08-29T19:37:31.997Z,21.77
2022-08-29T19:42:25.436Z,21.75
2022-08-29T19:47:18.947Z,21.73
2022-08-29T19:52:13.317Z,21.67
2022-08-29T19:57:08.274Z,21.56
2022-08-29T20:02:01.766Z,21.63
2022-08-29T20:07:00.095Z,21.38
2022-08-29T20:11:53.777Z,21.44
2022-08-29T20:17:07.914Z,21.42
2022-08-29T20:22:03.374Z,21.18
2022-08-29T20:26:57.729Z,21.16
2022-08-29T20:31:55.339Z,21.17
2022-08-29T20:37:06.025Z,21.05
2022-08-29T20:42:02.170Z,21.02
2022-08-29T20:46:57.093Z,21.02
2022-08-29T20:51:54.273Z,20.90
2022-08-29T20:56:51.722Z,20.77
2022-08-29T21:01:48.080Z,20.85
2022-08-29T21:06:47.490Z,21.00
2022-08-29T21:11:40.794Z,20.84
2022-08-29T21:16:36.249Z,20.57
2022-08-29T21:21:29.684Z,20.45
2022-08-29T21:26:24.614Z,20.55
2022-08-29T21:31:18.477Z,20.56
2022-08-29T21:36:13.026Z,20.29
2022-08-29T21:41:10.435Z,20.30
2022-08-29T21:46:13.819Z,20.47
2022-08-29T21:51:07.204Z,20.32
2022-08-29T21:56:00.548Z,20.13
2022-08-29T22:00:53.890Z,20.30
2022-08-29T22:05:49.072Z,20.42
2022-08-29T22:10:43.916Z,20.37
2022-08-29T22:15:54.494Z,20.48
2022-08-29T22:20:52.924Z,20.36
2022-08-29T22:25:49.192Z,20.00
2022-08-29T22:30:42.604Z,20.20
2022-08-29T22:35:37.001Z,20.11
2022-08-29T22:40:32.272Z,20.19
2022-08-29T22:45:25.841Z,19.91
2022-08-29T22:50:22.288Z,19.82
2022-08-29T23:00:20.306Z,19.79
2022-08-29T23:05:14.130Z,19.73
2022-08-29T23:10:10.274Z,19.56
2022-08-29T23:15:05.398Z,19.62
2022-08-29T23:20:00.128Z,19.61
2022-08-29T23:24:58.713Z,19.47
2022-08-29T23:29:53.153Z,19.47
2022-08-29T23:34:46.531Z,19.38
2022-08-29T23:39:41.345Z,19.49
2022-08-29T23:44:35.773Z,19.38
2022-08-29T23:49:29.748Z,19.27
2022-08-29T23:54:23.141Z,19.27
2022-08-29T23:59:31.714Z,19.28
